sensor_id;sensor_type;location;lat;lon;timestamp;P1;durP1;ratioP1;P2;durP2;ratioP2
76599;SDS011;65489;52.048;6.090;2023-05-07T00:01:53;1.20;;;0.90;;
76599;SDS011;65489;52.048;6.090;2023-05-07T00:04:19;1.60;;;0.88;;
76599;SDS011;65489;52.048;6.090;2023-05-07T00:06:44;1.42;;;0.90;;
76599;SDS011;65489;52.048;6.090;2023-05-07T00:09:10;1.00;;;0.70;;
76599;SDS011;65489;52.048;6.090;2023-05-07T00:11:35;1.00;;;0.70;;
76599;SDS011;65489;52.048;6.090;2023-05-07T00:14:01;2.08;;;0.95;;
76599;SDS011;65489;52.048;6.090;2023-05-07T00:16:26;1.75;;;0.70;;
76599;SDS011;65489;52.048;6.090;2023-05-07T00:18:52;1.30;;;0.82;;
76599;SDS011;65489;52.048;6.090;2023-05-07T00:21:17;2.58;;;0.85;;
76599;SDS011;65489;52.048;6.090;2023-05-07T00:23:43;1.55;;;1.00;;
76599;SDS011;65489;52.048;6.090;2023-05-07T00:26:08;1.00;;;0.80;;
76599;SDS011;65489;52.048;6.090;2023-05-07T00:28:34;1.80;;;1.00;;
76599;SDS011;65489;52.048;6.090;2023-05-07T00:30:59;2.45;;;0.80;;
76599;SDS011;65489;52.048;6.090;2023-05-07T00:33:25;1.17;;;0.90;;
76599;SDS011;65489;52.048;6.090;2023-05-07T00:35:52;1.42;;;0.85;;
76599;SDS011;65489;52.048;6.090;2023-05-07T00:38:17;0.80;;;0.60;;
76599;SDS011;65489;52.048;6.090;2023-05-07T00:40:43;1.40;;;0.90;;
76599;SDS011;65489;52.048;6.090;2023-05-07T00:43:08;2.47;;;0.70;;
76599;SDS011;65489;52.048;6.090;2023-05-07T00:45:34;1.70;;;0.85;;
76599;SDS011;65489;52.048;6.090;2023-05-07T00:48:00;1.10;;;0.88;;
76599;SDS011;65489;52.048;6.090;2023-05-07T00:50:26;1.52;;;0.98;;
76599;SDS011;65489;52.048;6.090;2023-05-07T00:52:53;1.08;;;0.80;;
76599;SDS011;65489;52.048;6.090;2023-05-07T00:55:18;1.20;;;0.68;;
76599;SDS011;65489;52.048;6.090;2023-05-07T00:57:45;1.55;;;0.80;;
76599;SDS011;65489;52.048;6.090;2023-05-07T01:00:10;1.42;;;0.90;;
76599;SDS011;65489;52.048;6.090;2023-05-07T01:02:38;1.02;;;0.80;;
76599;SDS011;65489;52.048;6.090;2023-05-07T01:05:04;1.40;;;0.75;;
76599;SDS011;65489;52.048;6.090;2023-05-07T01:07:31;1.08;;;0.73;;
76599;SDS011;65489;52.048;6.090;2023-05-07T01:09:57;1.08;;;0.90;;
76599;SDS011;65489;52.048;6.090;2023-05-07T01:12:23;1.33;;;0.77;;
76599;SDS011;65489;52.048;6.090;2023-05-07T01:14:49;1.38;;;0.88;;
76599;SDS011;65489;52.048;6.090;2023-05-07T01:17:15;1.08;;;0.80;;
76599;SDS011;65489;52.048;6.090;2023-05-07T01:19:41;1.45;;;0.88;;
76599;SDS011;65489;52.048;6.090;2023-05-07T01:22:08;1.00;;;0.60;;
76599;SDS011;65489;52.048;6.090;2023-05-07T01:24:43;1.52;;;0.73;;
76599;SDS011;65489;52.048;6.090;2023-05-07T01:27:09;1.70;;;0.90;;
76599;SDS011;65489;52.048;6.090;2023-05-07T01:29:36;0.90;;;0.70;;
76599;SDS011;65489;52.048;6.090;2023-05-07T01:32:01;1.10;;;0.90;;
76599;SDS011;65489;52.048;6.090;2023-05-07T01:34:28;0.88;;;0.60;;
76599;SDS011;65489;52.048;6.090;2023-05-07T01:36:56;0.82;;;0.75;;
76599;SDS011;65489;52.048;6.090;2023-05-07T01:39:27;0.98;;;0.80;;
76599;SDS011;65489;52.048;6.090;2023-05-07T01:41:54;1.30;;;0.80;;
76599;SDS011;65489;52.048;6.090;2023-05-07T01:44:22;0.80;;;0.60;;
76599;SDS011;65489;52.048;6.090;2023-05-07T01:46:47;1.23;;;0.70;;
76599;SDS011;65489;52.048;6.090;2023-05-07T01:49:13;2.15;;;0.70;;
76599;SDS011;65489;52.048;6.090;2023-05-07T01:51:39;0.93;;;0.70;;
76599;SDS011;65489;52.048;6.090;2023-05-07T01:54:05;0.70;;;0.65;;
76599;SDS011;65489;52.048;6.090;2023-05-07T01:56:31;1.08;;;0.70;;
76599;SDS011;65489;52.048;6.090;2023-05-07T01:58:58;1.58;;;0.88;;
76599;SDS011;65489;52.048;6.090;2023-05-07T02:01:23;1.02;;;0.70;;
76599;SDS011;65489;52.048;6.090;2023-05-07T02:03:49;0.75;;;0.60;;
76599;SDS011;65489;52.048;6.090;2023-05-07T02:06:21;0.90;;;0.70;;
76599;SDS011;65489;52.048;6.090;2023-05-07T02:08:47;1.10;;;0.73;;
76599;SDS011;65489;52.048;6.090;2023-05-07T02:11:13;1.10;;;0.65;;
76599;SDS011;65489;52.048;6.090;2023-05-07T02:13:39;0.90;;;0.65;;
76599;SDS011;65489;52.048;6.090;2023-05-07T02:16:04;0.70;;;0.70;;
76599;SDS011;65489;52.048;6.090;2023-05-07T02:18:30;1.63;;;0.70;;
76599;SDS011;65489;52.048;6.090;2023-05-07T02:20:57;1.00;;;0.80;;
76599;SDS011;65489;52.048;6.090;2023-05-07T02:23:22;1.30;;;0.77;;
76599;SDS011;65489;52.048;6.090;2023-05-07T02:25:48;1.67;;;1.02;;
76599;SDS011;65489;52.048;6.090;2023-05-07T02:28:13;0.77;;;0.60;;
76599;SDS011;65489;52.048;6.090;2023-05-07T02:30:48;0.93;;;0.60;;
76599;SDS011;65489;52.048;6.090;2023-05-07T02:33:14;1.38;;;0.70;;
76599;SDS011;65489;52.048;6.090;2023-05-07T02:35:40;0.73;;;0.57;;
76599;SDS011;65489;52.048;6.090;2023-05-07T02:38:06;0.77;;;0.68;;
76599;SDS011;65489;52.048;6.090;2023-05-07T02:40:32;1.00;;;0.90;;
76599;SDS011;65489;52.048;6.090;2023-05-07T02:43:04;1.02;;;0.80;;
76599;SDS011;65489;52.048;6.090;2023-05-07T02:45:29;0.98;;;0.60;;
76599;SDS011;65489;52.048;6.090;2023-05-07T02:47:55;1.00;;;0.63;;
76599;SDS011;65489;52.048;6.090;2023-05-07T02:50:21;1.63;;;0.70;;
76599;SDS011;65489;52.048;6.090;2023-05-07T02:52:46;1.15;;;0.80;;
76599;SDS011;65489;52.048;6.090;2023-05-07T02:55:12;1.08;;;0.70;;
76599;SDS011;65489;52.048;6.090;2023-05-07T02:57:38;0.88;;;0.65;;
76599;SDS011;65489;52.048;6.090;2023-05-07T03:00:12;0.80;;;0.60;;
76599;SDS011;65489;52.048;6.090;2023-05-07T03:02:45;0.88;;;0.70;;
76599;SDS011;65489;52.048;6.090;2023-05-07T03:05:11;0.80;;;0.60;;
76599;SDS011;65489;52.048;6.090;2023-05-07T03:07:37;1.23;;;0.70;;
76599;SDS011;65489;52.048;6.090;2023-05-07T03:10:03;1.23;;;0.70;;
76599;SDS011;65489;52.048;6.090;2023-05-07T03:12:29;0.75;;;0.70;;
76599;SDS011;65489;52.048;6.090;2023-05-07T03:14:55;0.85;;;0.70;;
76599;SDS011;65489;52.048;6.090;2023-05-07T03:17:21;1.50;;;0.80;;
76599;SDS011;65489;52.048;6.090;2023-05-07T03:19:47;1.15;;;0.80;;
76599;SDS011;65489;52.048;6.090;2023-05-07T03:22:13;0.95;;;0.80;;
76599;SDS011;65489;52.048;6.090;2023-05-07T03:24:38;0.90;;;0.80;;
76599;SDS011;65489;52.048;6.090;2023-05-07T03:27:04;1.13;;;0.88;;
76599;SDS011;65489;52.048;6.090;2023-05-07T03:29:29;1.20;;;0.80;;
76599;SDS011;65489;52.048;6.090;2023-05-07T03:31:55;0.82;;;0.70;;
76599;SDS011;65489;52.048;6.090;2023-05-07T03:34:21;1.30;;;0.88;;
76599;SDS011;65489;52.048;6.090;2023-05-07T03:36:50;1.20;;;0.75;;
76599;SDS011;65489;52.048;6.090;2023-05-07T03:39:17;1.30;;;1.10;;
76599;SDS011;65489;52.048;6.090;2023-05-07T03:41:43;1.20;;;1.10;;
76599;SDS011;65489;52.048;6.090;2023-05-07T03:44:08;2.50;;;1.10;;
76599;SDS011;65489;52.048;6.090;2023-05-07T03:46:35;1.88;;;1.60;;
76599;SDS011;65489;52.048;6.090;2023-05-07T03:49:01;0.80;;;0.80;;
76599;SDS011;65489;52.048;6.090;2023-05-07T03:51:27;1.10;;;1.00;;
76599;SDS011;65489;52.048;6.090;2023-05-07T03:53:53;0.90;;;0.70;;
76599;SDS011;65489;52.048;6.090;2023-05-07T03:56:19;1.30;;;1.13;;
76599;SDS011;65489;52.048;6.090;2023-05-07T03:58:49;1.67;;;1.48;;
76599;SDS011;65489;52.048;6.090;2023-05-07T04:01:14;1.52;;;1.00;;
76599;SDS011;65489;52.048;6.090;2023-05-07T04:03:40;1.73;;;0.90;;
76599;SDS011;65489;52.048;6.090;2023-05-07T04:06:06;1.75;;;1.00;;
76599;SDS011;65489;52.048;6.090;2023-05-07T04:08:33;1.05;;;0.95;;
76599;SDS011;65489;52.048;6.090;2023-05-07T04:10:59;0.88;;;0.80;;
76599;SDS011;65489;52.048;6.090;2023-05-07T04:13:29;1.48;;;1.00;;
76599;SDS011;65489;52.048;6.090;2023-05-07T04:15:56;1.00;;;0.88;;
76599;SDS011;65489;52.048;6.090;2023-05-07T04:18:23;1.40;;;1.30;;
76599;SDS011;65489;52.048;6.090;2023-05-07T04:20:49;1.65;;;1.48;;
76599;SDS011;65489;52.048;6.090;2023-05-07T04:23:15;1.63;;;1.48;;
76599;SDS011;65489;52.048;6.090;2023-05-07T04:25:40;1.50;;;1.40;;
76599;SDS011;65489;52.048;6.090;2023-05-07T04:28:14;1.48;;;1.10;;
76599;SDS011;65489;52.048;6.090;2023-05-07T04:30:40;1.67;;;1.30;;
76599;SDS011;65489;52.048;6.090;2023-05-07T04:33:07;2.15;;;1.60;;
76599;SDS011;65489;52.048;6.090;2023-05-07T04:35:33;1.67;;;1.15;;
76599;SDS011;65489;52.048;6.090;2023-05-07T04:37:59;1.45;;;0.70;;
76599;SDS011;65489;52.048;6.090;2023-05-07T04:40:25;0.93;;;0.82;;
76599;SDS011;65489;52.048;6.090;2023-05-07T04:42:50;1.63;;;1.52;;
76599;SDS011;65489;52.048;6.090;2023-05-07T04:45:16;1.60;;;1.40;;
76599;SDS011;65489;52.048;6.090;2023-05-07T04:47:45;0.80;;;0.65;;
76599;SDS011;65489;52.048;6.090;2023-05-07T04:50:11;0.80;;;0.63;;
76599;SDS011;65489;52.048;6.090;2023-05-07T04:52:38;2.08;;;1.88;;
76599;SDS011;65489;52.048;6.090;2023-05-07T04:55:04;2.97;;;2.67;;
76599;SDS011;65489;52.048;6.090;2023-05-07T04:57:35;3.10;;;2.70;;
76599;SDS011;65489;52.048;6.090;2023-05-07T05:00:00;1.70;;;1.60;;
76599;SDS011;65489;52.048;6.090;2023-05-07T05:02:27;1.08;;;0.80;;
76599;SDS011;65489;52.048;6.090;2023-05-07T05:04:52;3.60;;;2.80;;
76599;SDS011;65489;52.048;6.090;2023-05-07T05:07:18;1.98;;;1.63;;
76599;SDS011;65489;52.048;6.090;2023-05-07T05:09:44;1.17;;;1.00;;
76599;SDS011;65489;52.048;6.090;2023-05-07T05:12:10;1.13;;;1.00;;
76599;SDS011;65489;52.048;6.090;2023-05-07T05:14:36;2.10;;;1.30;;
76599;SDS011;65489;52.048;6.090;2023-05-07T05:17:02;0.70;;;0.63;;
76599;SDS011;65489;52.048;6.090;2023-05-07T05:19:28;1.65;;;1.00;;
76599;SDS011;65489;52.048;6.090;2023-05-07T05:21:54;1.27;;;1.10;;
76599;SDS011;65489;52.048;6.090;2023-05-07T05:24:20;1.30;;;1.20;;
76599;SDS011;65489;52.048;6.090;2023-05-07T05:26:45;0.95;;;0.77;;
76599;SDS011;65489;52.048;6.090;2023-05-07T05:29:11;1.80;;;1.48;;
76599;SDS011;65489;52.048;6.090;2023-05-07T05:31:39;0.80;;;0.67;;
76599;SDS011;65489;52.048;6.090;2023-05-07T05:34:06;0.43;;;0.40;;
76599;SDS011;65489;52.048;6.090;2023-05-07T05:36:32;1.73;;;1.00;;
76599;SDS011;65489;52.048;6.090;2023-05-07T05:38:58;1.02;;;0.50;;
76599;SDS011;65489;52.048;6.090;2023-05-07T05:41:23;1.27;;;1.00;;
76599;SDS011;65489;52.048;6.090;2023-05-07T05:43:49;1.77;;;1.35;;
76599;SDS011;65489;52.048;6.090;2023-05-07T05:46:15;1.80;;;1.20;;
76599;SDS011;65489;52.048;6.090;2023-05-07T05:48:41;3.25;;;1.70;;
76599;SDS011;65489;52.048;6.090;2023-05-07T05:51:07;1.00;;;0.90;;
76599;SDS011;65489;52.048;6.090;2023-05-07T05:53:32;1.17;;;0.90;;
76599;SDS011;65489;52.048;6.090;2023-05-07T05:55:58;1.25;;;0.70;;
76599;SDS011;65489;52.048;6.090;2023-05-07T05:58:24;0.60;;;0.60;;
76599;SDS011;65489;52.048;6.090;2023-05-07T06:00:55;1.25;;;0.70;;
76599;SDS011;65489;52.048;6.090;2023-05-07T06:03:24;1.73;;;0.70;;
76599;SDS011;65489;52.048;6.090;2023-05-07T06:05:50;1.02;;;0.93;;
76599;SDS011;65489;52.048;6.090;2023-05-07T06:08:16;1.23;;;1.13;;
76599;SDS011;65489;52.048;6.090;2023-05-07T06:10:43;2.13;;;1.90;;
76599;SDS011;65489;52.048;6.090;2023-05-07T06:13:09;1.27;;;1.17;;
76599;SDS011;65489;52.048;6.090;2023-05-07T06:15:36;1.27;;;1.10;;
76599;SDS011;65489;52.048;6.090;2023-05-07T06:18:06;2.58;;;2.17;;
76599;SDS011;65489;52.048;6.090;2023-05-07T06:20:32;1.00;;;0.90;;
76599;SDS011;65489;52.048;6.090;2023-05-07T06:23:00;0.60;;;0.60;;
76599;SDS011;65489;52.048;6.090;2023-05-07T06:25:26;0.60;;;0.50;;
76599;SDS011;65489;52.048;6.090;2023-05-07T06:27:52;0.65;;;0.60;;
76599;SDS011;65489;52.048;6.090;2023-05-07T06:30:18;0.80;;;0.80;;
76599;SDS011;65489;52.048;6.090;2023-05-07T06:32:43;1.13;;;1.02;;
76599;SDS011;65489;52.048;6.090;2023-05-07T06:35:11;1.65;;;1.33;;
76599;SDS011;65489;52.048;6.090;2023-05-07T06:37:38;0.93;;;0.82;;
76599;SDS011;65489;52.048;6.090;2023-05-07T06:40:05;0.80;;;0.75;;
76599;SDS011;65489;52.048;6.090;2023-05-07T06:42:35;0.73;;;0.63;;
76599;SDS011;65489;52.048;6.090;2023-05-07T06:45:19;1.05;;;0.68;;
76599;SDS011;65489;52.048;6.090;2023-05-07T06:47:44;1.15;;;1.05;;
76599;SDS011;65489;52.048;6.090;2023-05-07T06:50:10;1.85;;;1.40;;
76599;SDS011;65489;52.048;6.090;2023-05-07T06:52:36;1.60;;;1.05;;
76599;SDS011;65489;52.048;6.090;2023-05-07T06:55:04;1.17;;;1.00;;
76599;SDS011;65489;52.048;6.090;2023-05-07T06:57:30;1.00;;;0.80;;
76599;SDS011;65489;52.048;6.090;2023-05-07T06:59:56;0.93;;;0.73;;
76599;SDS011;65489;52.048;6.090;2023-05-07T07:02:21;0.82;;;0.70;;
76599;SDS011;65489;52.048;6.090;2023-05-07T07:04:48;0.70;;;0.65;;
76599;SDS011;65489;52.048;6.090;2023-05-07T07:07:14;1.63;;;1.20;;
76599;SDS011;65489;52.048;6.090;2023-05-07T07:09:42;1.13;;;0.80;;
76599;SDS011;65489;52.048;6.090;2023-05-07T07:12:08;0.80;;;0.70;;
76599;SDS011;65489;52.048;6.090;2023-05-07T07:14:36;0.60;;;0.52;;
76599;SDS011;65489;52.048;6.090;2023-05-07T07:17:02;1.00;;;0.60;;
76599;SDS011;65489;52.048;6.090;2023-05-07T07:19:30;1.17;;;1.02;;
76599;SDS011;65489;52.048;6.090;2023-05-07T07:21:57;1.13;;;0.77;;
76599;SDS011;65489;52.048;6.090;2023-05-07T07:24:22;1.20;;;1.10;;
76599;SDS011;65489;52.048;6.090;2023-05-07T07:26:52;1.00;;;0.80;;
76599;SDS011;65489;52.048;6.090;2023-05-07T07:29:19;2.75;;;1.20;;
76599;SDS011;65489;52.048;6.090;2023-05-07T07:31:47;1.05;;;0.60;;
76599;SDS011;65489;52.048;6.090;2023-05-07T07:34:13;0.70;;;0.60;;
76599;SDS011;65489;52.048;6.090;2023-05-07T07:36:38;0.90;;;0.70;;
76599;SDS011;65489;52.048;6.090;2023-05-07T07:39:05;1.25;;;0.82;;
76599;SDS011;65489;52.048;6.090;2023-05-07T07:41:31;2.72;;;1.70;;
76599;SDS011;65489;52.048;6.090;2023-05-07T07:43:57;1.45;;;1.05;;
76599;SDS011;65489;52.048;6.090;2023-05-07T07:46:23;0.70;;;0.60;;
76599;SDS011;65489;52.048;6.090;2023-05-07T07:48:49;0.80;;;0.60;;
76599;SDS011;65489;52.048;6.090;2023-05-07T07:51:14;1.08;;;0.80;;
76599;SDS011;65489;52.048;6.090;2023-05-07T07:53:40;1.05;;;0.90;;
76599;SDS011;65489;52.048;6.090;2023-05-07T07:56:06;1.25;;;0.60;;
76599;SDS011;65489;52.048;6.090;2023-05-07T07:58:33;1.00;;;0.80;;
76599;SDS011;65489;52.048;6.090;2023-05-07T08:01:00;1.40;;;0.82;;
76599;SDS011;65489;52.048;6.090;2023-05-07T08:03:26;0.82;;;0.63;;
76599;SDS011;65489;52.048;6.090;2023-05-07T08:05:56;1.98;;;0.70;;
76599;SDS011;65489;52.048;6.090;2023-05-07T08:08:22;0.77;;;0.60;;
76599;SDS011;65489;52.048;6.090;2023-05-07T08:10:49;0.93;;;0.68;;
76599;SDS011;65489;52.048;6.090;2023-05-07T08:13:23;1.00;;;0.80;;
76599;SDS011;65489;52.048;6.090;2023-05-07T08:15:48;0.70;;;0.60;;
76599;SDS011;65489;52.048;6.090;2023-05-07T08:18:14;0.77;;;0.68;;
76599;SDS011;65489;52.048;6.090;2023-05-07T08:20:40;1.38;;;0.90;;
76599;SDS011;65489;52.048;6.090;2023-05-07T08:23:10;1.20;;;0.90;;
76599;SDS011;65489;52.048;6.090;2023-05-07T08:25:37;1.65;;;1.38;;
76599;SDS011;65489;52.048;6.090;2023-05-07T08:28:03;0.90;;;0.80;;
76599;SDS011;65489;52.048;6.090;2023-05-07T08:30:29;0.90;;;0.80;;
76599;SDS011;65489;52.048;6.090;2023-05-07T08:32:55;1.73;;;1.45;;
76599;SDS011;65489;52.048;6.090;2023-05-07T08:35:20;1.45;;;1.02;;
76599;SDS011;65489;52.048;6.090;2023-05-07T08:37:46;1.52;;;1.20;;
76599;SDS011;65489;52.048;6.090;2023-05-07T08:40:12;2.53;;;2.28;;
76599;SDS011;65489;52.048;6.090;2023-05-07T08:42:38;3.08;;;2.03;;
76599;SDS011;65489;52.048;6.090;2023-05-07T08:45:08;1.80;;;1.42;;
76599;SDS011;65489;52.048;6.090;2023-05-07T08:47:43;1.33;;;1.17;;
76599;SDS011;65489;52.048;6.090;2023-05-07T08:50:10;2.05;;;1.70;;
76599;SDS011;65489;52.048;6.090;2023-05-07T08:52:37;2.50;;;2.30;;
76599;SDS011;65489;52.048;6.090;2023-05-07T08:55:02;2.72;;;1.83;;
76599;SDS011;65489;52.048;6.090;2023-05-07T08:57:29;2.42;;;1.30;;
76599;SDS011;65489;52.048;6.090;2023-05-07T08:59:55;2.53;;;1.88;;
76599;SDS011;65489;52.048;6.090;2023-05-07T09:02:21;1.42;;;1.27;;
76599;SDS011;65489;52.048;6.090;2023-05-07T09:04:46;1.30;;;1.20;;
76599;SDS011;65489;52.048;6.090;2023-05-07T09:07:12;2.35;;;1.40;;
76599;SDS011;65489;52.048;6.090;2023-05-07T09:09:41;3.30;;;2.45;;
76599;SDS011;65489;52.048;6.090;2023-05-07T09:12:09;3.93;;;3.53;;
76599;SDS011;65489;52.048;6.090;2023-05-07T09:14:36;2.92;;;2.58;;
76599;SDS011;65489;52.048;6.090;2023-05-07T09:17:02;1.38;;;1.27;;
76599;SDS011;65489;52.048;6.090;2023-05-07T09:19:29;1.00;;;0.80;;
76599;SDS011;65489;52.048;6.090;2023-05-07T09:21:58;2.20;;;2.00;;
76599;SDS011;65489;52.048;6.090;2023-05-07T09:24:33;2.38;;;2.05;;
76599;SDS011;65489;52.048;6.090;2023-05-07T09:27:02;1.20;;;1.10;;
76599;SDS011;65489;52.048;6.090;2023-05-07T09:29:31;2.47;;;2.05;;
76599;SDS011;65489;52.048;6.090;2023-05-07T09:32:05;2.08;;;1.75;;
76599;SDS011;65489;52.048;6.090;2023-05-07T09:34:31;1.83;;;1.38;;
76599;SDS011;65489;52.048;6.090;2023-05-07T09:37:01;1.25;;;0.93;;
76599;SDS011;65489;52.048;6.090;2023-05-07T09:39:38;1.60;;;1.20;;
76599;SDS011;65489;52.048;6.090;2023-05-07T09:42:04;1.33;;;1.00;;
76599;SDS011;65489;52.048;6.090;2023-05-07T09:47:00;1.20;;;1.00;;
76599;SDS011;65489;52.048;6.090;2023-05-07T09:49:35;2.10;;;1.90;;
76599;SDS011;65489;52.048;6.090;2023-05-07T09:52:05;2.20;;;1.95;;
76599;SDS011;65489;52.048;6.090;2023-05-07T09:54:36;2.25;;;1.75;;
76599;SDS011;65489;52.048;6.090;2023-05-07T09:57:04;2.13;;;1.40;;
76599;SDS011;65489;52.048;6.090;2023-05-07T09:59:31;1.90;;;1.10;;
76599;SDS011;65489;52.048;6.090;2023-05-07T10:02:00;1.75;;;1.30;;
76599;SDS011;65489;52.048;6.090;2023-05-07T10:04:28;2.40;;;1.35;;
76599;SDS011;65489;52.048;6.090;2023-05-07T10:06:54;3.00;;;1.23;;
76599;SDS011;65489;52.048;6.090;2023-05-07T10:09:21;3.55;;;2.75;;
76599;SDS011;65489;52.048;6.090;2023-05-07T10:11:50;2.17;;;1.60;;
76599;SDS011;65489;52.048;6.090;2023-05-07T10:14:16;3.25;;;1.35;;
76599;SDS011;65489;52.048;6.090;2023-05-07T10:16:43;1.70;;;1.30;;
76599;SDS011;65489;52.048;6.090;2023-05-07T10:19:13;3.17;;;2.13;;
76599;SDS011;65489;52.048;6.090;2023-05-07T10:21:44;3.65;;;3.22;;
76599;SDS011;65489;52.048;6.090;2023-05-07T10:24:27;4.53;;;2.92;;
76599;SDS011;65489;52.048;6.090;2023-05-07T10:26:56;3.17;;;2.40;;
76599;SDS011;65489;52.048;6.090;2023-05-07T10:34:48;2.92;;;2.42;;
76599;SDS011;65489;52.048;6.090;2023-05-07T10:37:16;2.65;;;2.25;;
76599;SDS011;65489;52.048;6.090;2023-05-07T10:39:43;3.25;;;1.55;;
76599;SDS011;65489;52.048;6.090;2023-05-07T10:42:09;2.53;;;2.28;;
76599;SDS011;65489;52.048;6.090;2023-05-07T10:44:38;2.28;;;1.63;;
76599;SDS011;65489;52.048;6.090;2023-05-07T10:47:08;3.53;;;2.20;;
76599;SDS011;65489;52.048;6.090;2023-05-07T10:54:47;3.22;;;1.90;;
76599;SDS011;65489;52.048;6.090;2023-05-07T11:05:31;2.83;;;2.28;;
76599;SDS011;65489;52.048;6.090;2023-05-07T11:08:21;4.03;;;2.53;;
76599;SDS011;65489;52.048;6.090;2023-05-07T11:10:56;1.92;;;1.45;;
76599;SDS011;65489;52.048;6.090;2023-05-07T11:13:41;2.00;;;1.42;;
76599;SDS011;65489;52.048;6.090;2023-05-07T11:16:23;1.17;;;0.90;;
76599;SDS011;65489;52.048;6.090;2023-05-07T11:18:57;1.13;;;0.85;;
76599;SDS011;65489;52.048;6.090;2023-05-07T11:24:06;1.58;;;1.20;;
76599;SDS011;65489;52.048;6.090;2023-05-07T11:26:57;1.50;;;1.30;;
76599;SDS011;65489;52.048;6.090;2023-05-07T11:29:25;2.35;;;1.48;;
76599;SDS011;65489;52.048;6.090;2023-05-07T11:31:56;1.92;;;1.50;;
76599;SDS011;65489;52.048;6.090;2023-05-07T11:34:27;1.17;;;1.08;;
76599;SDS011;65489;52.048;6.090;2023-05-07T11:36:54;2.95;;;2.10;;
76599;SDS011;65489;52.048;6.090;2023-05-07T11:39:31;2.35;;;1.70;;
76599;SDS011;65489;52.048;6.090;2023-05-07T11:42:01;2.75;;;2.15;;
76599;SDS011;65489;52.048;6.090;2023-05-07T11:44:43;1.85;;;1.60;;
76599;SDS011;65489;52.048;6.090;2023-05-07T11:47:09;1.98;;;1.77;;
76599;SDS011;65489;52.048;6.090;2023-05-07T11:49:35;2.42;;;1.75;;
76599;SDS011;65489;52.048;6.090;2023-05-07T11:52:01;4.55;;;3.10;;
76599;SDS011;65489;52.048;6.090;2023-05-07T11:54:34;2.15;;;1.40;;
76599;SDS011;65489;52.048;6.090;2023-05-07T11:57:00;1.90;;;1.70;;
76599;SDS011;65489;52.048;6.090;2023-05-07T11:59:26;4.72;;;1.92;;
76599;SDS011;65489;52.048;6.090;2023-05-07T12:01:51;2.60;;;1.98;;
76599;SDS011;65489;52.048;6.090;2023-05-07T12:04:19;2.58;;;1.50;;
76599;SDS011;65489;52.048;6.090;2023-05-07T12:06:45;1.98;;;1.63;;
76599;SDS011;65489;52.048;6.090;2023-05-07T12:09:11;1.85;;;1.27;;
76599;SDS011;65489;52.048;6.090;2023-05-07T12:11:37;1.55;;;1.15;;
76599;SDS011;65489;52.048;6.090;2023-05-07T12:14:04;3.17;;;1.35;;
76599;SDS011;65489;52.048;6.090;2023-05-07T12:16:30;2.05;;;1.52;;
76599;SDS011;65489;52.048;6.090;2023-05-07T12:18:56;2.33;;;1.55;;
76599;SDS011;65489;52.048;6.090;2023-05-07T12:21:24;2.65;;;1.73;;
76599;SDS011;65489;52.048;6.090;2023-05-07T12:23:50;1.63;;;1.35;;
76599;SDS011;65489;52.048;6.090;2023-05-07T12:26:15;1.25;;;1.15;;
76599;SDS011;65489;52.048;6.090;2023-05-07T12:28:42;1.85;;;1.27;;
76599;SDS011;65489;52.048;6.090;2023-05-07T12:31:07;2.47;;;2.20;;
76599;SDS011;65489;52.048;6.090;2023-05-07T12:33:33;1.88;;;1.65;;
76599;SDS011;65489;52.048;6.090;2023-05-07T12:36:02;3.47;;;1.63;;
76599;SDS011;65489;52.048;6.090;2023-05-07T12:38:33;2.72;;;1.60;;
76599;SDS011;65489;52.048;6.090;2023-05-07T12:41:00;1.40;;;1.30;;
76599;SDS011;65489;52.048;6.090;2023-05-07T12:43:26;1.75;;;1.30;;
76599;SDS011;65489;52.048;6.090;2023-05-07T12:45:57;1.85;;;1.50;;
76599;SDS011;65489;52.048;6.090;2023-05-07T12:48:25;2.03;;;1.58;;
76599;SDS011;65489;52.048;6.090;2023-05-07T12:50:55;1.90;;;1.50;;
76599;SDS011;65489;52.048;6.090;2023-05-07T12:53:22;2.10;;;1.40;;
76599;SDS011;65489;52.048;6.090;2023-05-07T12:55:51;2.75;;;1.77;;
76599;SDS011;65489;52.048;6.090;2023-05-07T12:58:19;1.88;;;1.30;;
76599;SDS011;65489;52.048;6.090;2023-05-07T13:00:51;3.35;;;1.90;;
76599;SDS011;65489;52.048;6.090;2023-05-07T13:03:23;3.13;;;1.70;;
76599;SDS011;65489;52.048;6.090;2023-05-07T13:06:00;3.03;;;2.03;;
76599;SDS011;65489;52.048;6.090;2023-05-07T13:08:28;1.98;;;1.60;;
76599;SDS011;65489;52.048;6.090;2023-05-07T13:10:55;2.33;;;1.80;;
76599;SDS011;65489;52.048;6.090;2023-05-07T13:13:21;1.30;;;1.20;;
76599;SDS011;65489;52.048;6.090;2023-05-07T13:15:47;2.47;;;1.30;;
76599;SDS011;65489;52.048;6.090;2023-05-07T13:18:13;2.20;;;1.88;;
76599;SDS011;65489;52.048;6.090;2023-05-07T13:20:38;1.30;;;1.10;;
76599;SDS011;65489;52.048;6.090;2023-05-07T13:23:04;1.67;;;1.58;;
76599;SDS011;65489;52.048;6.090;2023-05-07T13:25:30;1.73;;;1.63;;
76599;SDS011;65489;52.048;6.090;2023-05-07T13:27:59;1.58;;;1.48;;
76599;SDS011;65489;52.048;6.090;2023-05-07T13:32:51;1.63;;;1.30;;
76599;SDS011;65489;52.048;6.090;2023-05-07T13:35:17;1.90;;;1.70;;
76599;SDS011;65489;52.048;6.090;2023-05-07T13:37:43;1.75;;;1.65;;
76599;SDS011;65489;52.048;6.090;2023-05-07T13:40:08;4.47;;;1.67;;
76599;SDS011;65489;52.048;6.090;2023-05-07T13:42:34;2.30;;;1.70;;
76599;SDS011;65489;52.048;6.090;2023-05-07T13:45:00;2.25;;;1.55;;
76599;SDS011;65489;52.048;6.090;2023-05-07T13:47:25;1.90;;;1.73;;
76599;SDS011;65489;52.048;6.090;2023-05-07T13:49:51;1.58;;;1.48;;
76599;SDS011;65489;52.048;6.090;2023-05-07T13:52:17;2.45;;;1.58;;
76599;SDS011;65489;52.048;6.090;2023-05-07T13:54:42;1.98;;;1.58;;
76599;SDS011;65489;52.048;6.090;2023-05-07T13:57:08;2.40;;;1.58;;
76599;SDS011;65489;52.048;6.090;2023-05-07T13:59:33;1.58;;;1.48;;
76599;SDS011;65489;52.048;6.090;2023-05-07T14:01:59;2.63;;;1.55;;
76599;SDS011;65489;52.048;6.090;2023-05-07T14:04:24;1.70;;;1.60;;
76599;SDS011;65489;52.048;6.090;2023-05-07T14:06:50;1.85;;;1.35;;
76599;SDS011;65489;52.048;6.090;2023-05-07T14:09:16;1.70;;;1.52;;
76599;SDS011;65489;52.048;6.090;2023-05-07T14:11:41;2.00;;;1.42;;
76599;SDS011;65489;52.048;6.090;2023-05-07T14:14:07;2.13;;;1.70;;
76599;SDS011;65489;52.048;6.090;2023-05-07T14:16:35;1.60;;;1.40;;
76599;SDS011;65489;52.048;6.090;2023-05-07T14:19:01;1.80;;;1.50;;
76599;SDS011;65489;52.048;6.090;2023-05-07T14:21:27;2.92;;;1.90;;
76599;SDS011;65489;52.048;6.090;2023-05-07T14:23:52;2.92;;;1.45;;
76599;SDS011;65489;52.048;6.090;2023-05-07T14:26:18;1.40;;;1.27;;
76599;SDS011;65489;52.048;6.090;2023-05-07T14:28:44;1.45;;;1.35;;
76599;SDS011;65489;52.048;6.090;2023-05-07T14:31:11;1.40;;;1.30;;
76599;SDS011;65489;52.048;6.090;2023-05-07T14:33:37;1.88;;;1.40;;
76599;SDS011;65489;52.048;6.090;2023-05-07T14:36:03;1.63;;;1.27;;
76599;SDS011;65489;52.048;6.090;2023-05-07T14:38:28;2.15;;;1.40;;
76599;SDS011;65489;52.048;6.090;2023-05-07T14:40:55;1.50;;;1.40;;
76599;SDS011;65489;52.048;6.090;2023-05-07T14:43:21;1.38;;;1.27;;
76599;SDS011;65489;52.048;6.090;2023-05-07T14:45:48;1.40;;;1.30;;
76599;SDS011;65489;52.048;6.090;2023-05-07T14:48:15;1.50;;;1.40;;
76599;SDS011;65489;52.048;6.090;2023-05-07T14:50:43;1.60;;;1.20;;
76599;SDS011;65489;52.048;6.090;2023-05-07T14:53:09;1.20;;;1.10;;
76599;SDS011;65489;52.048;6.090;2023-05-07T14:55:34;1.50;;;1.40;;
76599;SDS011;65489;52.048;6.090;2023-05-07T14:58:00;1.65;;;1.45;;
76599;SDS011;65489;52.048;6.090;2023-05-07T15:00:26;1.83;;;1.52;;
76599;SDS011;65489;52.048;6.090;2023-05-07T15:02:51;3.80;;;1.40;;
76599;SDS011;65489;52.048;6.090;2023-05-07T15:05:17;1.40;;;1.30;;
76599;SDS011;65489;52.048;6.090;2023-05-07T15:07:44;1.23;;;1.13;;
76599;SDS011;65489;52.048;6.090;2023-05-07T15:10:10;2.33;;;1.27;;
76599;SDS011;65489;52.048;6.090;2023-05-07T15:12:35;1.30;;;1.20;;
76599;SDS011;65489;52.048;6.090;2023-05-07T15:15:01;1.60;;;1.50;;